createdAt,value
2022-11-13T00:01:00.976Z,63.49
2022-11-13T00:02:05.329Z,63.49
2022-11-13T00:03:09.605Z,63.54
2022-11-13T00:04:13.951Z,63.45
2022-11-13T00:05:18.157Z,63.57
2022-11-13T00:06:22.466Z,63.63
2022-11-13T00:07:26.862Z,63.56
2022-11-13T00:08:32.079Z,63.49
2022-11-13T00:09:36.316Z,63.48
2022-11-13T00:10:40.561Z,63.53
2022-11-13T00:11:44.784Z,63.55
2022-11-13T00:12:49.026Z,63.58
2022-11-13T00:13:53.279Z,63.68
2022-11-13T00:14:57.521Z,63.69
2022-11-13T00:16:01.737Z,63.53
2022-11-13T00:17:05.974Z,63.61
2022-11-13T00:18:10.256Z,63.71
2022-11-13T00:19:14.483Z,63.67
2022-11-13T00:20:18.720Z,63.65
2022-11-13T00:21:22.967Z,63.7
2022-11-13T00:22:27.231Z,63.81
2022-11-13T00:23:31.485Z,63.77
2022-11-13T00:24:35.750Z,63.81
2022-11-13T00:25:39.997Z,63.7
2022-11-13T00:26:44.259Z,63.77
2022-11-13T00:27:49.505Z,63.96
2022-11-13T00:28:53.779Z,63.88
2022-11-13T00:29:58.000Z,63.8
2022-11-13T00:31:02.228Z,63.88
2022-11-13T00:32:06.462Z,63.97
2022-11-13T00:33:10.676Z,63.8
2022-11-13T00:34:49.376Z,64.01
2022-11-13T00:35:53.605Z,63.91
2022-11-13T00:36:57.877Z,63.92
2022-11-13T00:38:02.105Z,64
2022-11-13T00:39:06.357Z,64.02
2022-11-13T00:40:10.561Z,63.97
2022-11-13T00:41:14.774Z,64.13
2022-11-13T00:42:19.017Z,64.04
2022-11-13T00:43:23.250Z,64.1
2022-11-13T00:44:27.528Z,64.04
2022-11-13T00:45:31.751Z,64.08
2022-11-13T00:46:35.987Z,64.19
2022-11-13T00:47:40.250Z,64.03
2022-11-13T00:48:44.490Z,64.19
2022-11-13T00:49:48.759Z,64.03
2022-11-13T00:50:52.960Z,64.13
2022-11-13T00:51:57.174Z,64.36
2022-11-13T00:53:01.442Z,64.13
2022-11-13T00:54:06.672Z,64.14
2022-11-13T00:55:10.947Z,64.27
2022-11-13T00:56:15.201Z,64.2
2022-11-13T00:57:19.442Z,64.13
2022-11-13T00:58:23.672Z,64.2
2022-11-13T00:59:27.903Z,64.3
2022-11-13T01:00:32.127Z,64.36
2022-11-13T01:01:36.520Z,64.21
2022-11-13T01:02:40.796Z,64.44
2022-11-13T01:03:45.022Z,64.37
2022-11-13T01:04:49.238Z,64.44
2022-11-13T01:05:53.483Z,64.41
2022-11-13T01:06:57.984Z,64.42
2022-11-13T01:08:02.232Z,64.32
2022-11-13T01:09:06.442Z,64.41
2022-11-13T01:10:10.657Z,64.34
2022-11-13T01:11:14.883Z,64.48
2022-11-13T01:12:19.112Z,64.51
2022-11-13T01:13:23.347Z,64.46
2022-11-13T01:14:27.591Z,64.59
2022-11-13T01:15:31.793Z,64.51
2022-11-13T01:16:36.021Z,64.6
2022-11-13T01:17:40.253Z,64.55
2022-11-13T01:18:44.479Z,64.54
2022-11-13T01:19:48.704Z,64.64
2022-11-13T01:20:52.934Z,64.61
2022-11-13T01:21:57.149Z,64.69
2022-11-13T01:23:01.366Z,64.57
2022-11-13T01:24:05.588Z,64.68
2022-11-13T01:25:09.829Z,64.67
2022-11-13T01:26:14.066Z,64.62
2022-11-13T01:27:18.267Z,64.53
2022-11-13T01:28:22.571Z,64.69
2022-11-13T01:29:26.777Z,64.74
2022-11-13T01:30:30.990Z,64.73
2022-11-13T01:31:35.214Z,64.71
2022-11-13T01:32:39.444Z,64.77
2022-11-13T01:33:43.648Z,64.85
2022-11-13T01:34:47.863Z,64.76
2022-11-13T01:35:52.171Z,64.81
2022-11-13T01:36:56.457Z,64.87
2022-11-13T01:38:00.671Z,64.9
2022-11-13T01:39:04.920Z,64.76
2022-11-13T01:40:09.124Z,64.84
2022-11-13T01:41:13.363Z,64.88
2022-11-13T01:42:17.580Z,65.04
2022-11-13T01:43:21.851Z,65.15
2022-11-13T01:44:26.109Z,64.99
2022-11-13T01:45:30.363Z,64.99
2022-11-13T01:46:34.602Z,65.08
2022-11-13T01:47:38.843Z,64.99
2022-11-13T01:48:43.078Z,65.24
2022-11-13T01:49:47.296Z,65.14
2022-11-13T01:50:51.500Z,65.11
2022-11-13T01:51:55.721Z,65.16
2022-11-13T01:52:59.977Z,65.12
2022-11-13T01:54:04.235Z,65.1
2022-11-13T01:55:08.467Z,65.19
2022-11-13T01:56:12.687Z,65.26
2022-11-13T01:57:16.930Z,65.17
2022-11-13T01:58:21.178Z,65.31
2022-11-13T01:59:25.366Z,65.32
2022-11-13T02:00:29.589Z,65.36
2022-11-13T02:01:34.079Z,65.36
2022-11-13T02:02:38.330Z,65.31
2022-11-13T02:03:44.830Z,65.36
2022-11-13T02:04:49.043Z,65.51
2022-11-13T02:05:53.357Z,65.36
2022-11-13T02:06:57.803Z,65.4
2022-11-13T02:08:02.059Z,65.32
2022-11-13T02:09:06.311Z,65.25
2022-11-13T02:10:10.545Z,65.41
2022-11-13T02:11:14.820Z,65.4
2022-11-13T02:12:19.083Z,65.37
2022-11-13T02:13:23.319Z,65.34
2022-11-13T02:14:27.603Z,65.42
2022-11-13T02:15:31.822Z,65.5
2022-11-13T02:16:36.057Z,65.44
2022-11-13T02:17:40.325Z,65.38
2022-11-13T02:18:44.550Z,65.5
2022-11-13T02:19:48.742Z,65.47
2022-11-13T02:20:52.982Z,65.72
2022-11-13T02:21:57.213Z,65.64
2022-11-13T02:23:01.467Z,65.59
2022-11-13T02:24:05.710Z,65.74
2022-11-13T02:25:09.940Z,65.62
2022-11-13T02:26:14.181Z,65.64
2022-11-13T02:27:18.415Z,65.58
2022-11-13T02:28:22.694Z,65.53
2022-11-13T02:29:26.935Z,65.83
2022-11-13T02:30:31.143Z,65.94
2022-11-13T02:31:35.351Z,65.89
2022-11-13T02:32:39.569Z,65.88
2022-11-13T02:33:43.782Z,65.75
2022-11-13T02:34:48.019Z,65.96
2022-11-13T02:35:52.223Z,65.93
2022-11-13T02:36:56.444Z,66.07
2022-11-13T02:38:00.911Z,65.76
2022-11-13T02:39:05.114Z,65.96
2022-11-13T02:40:09.381Z,65.9
2022-11-13T02:41:13.625Z,66.16
2022-11-13T02:42:17.865Z,65.97
2022-11-13T02:43:22.084Z,65.88
2022-11-13T02:44:26.298Z,66.05
2022-11-13T02:45:30.575Z,66.11
2022-11-13T02:46:34.833Z,65.98
2022-11-13T02:47:39.069Z,65.95
2022-11-13T02:48:43.304Z,65.98
2022-11-13T02:49:47.541Z,66.2
2022-11-13T02:50:51.786Z,66.19
2022-11-13T02:51:56.106Z,66.02
2022-11-13T02:53:00.545Z,66.13
2022-11-13T02:54:04.816Z,66.21
2022-11-13T02:55:09.030Z,66.12
2022-11-13T02:56:13.276Z,66.23
2022-11-13T02:57:17.519Z,66.2
2022-11-13T02:58:21.719Z,66.18
2022-11-13T02:59:25.936Z,66.42
2022-11-13T03:00:30.185Z,66.52
2022-11-13T03:01:34.533Z,66.36
2022-11-13T03:02:38.786Z,66.38
2022-11-13T03:03:59.666Z,66.48
2022-11-13T03:05:19.245Z,66.31
2022-11-13T03:06:23.547Z,66.37
2022-11-13T03:07:27.794Z,66.37
2022-11-13T03:08:36.075Z,66.45
2022-11-13T03:09:40.647Z,66.41
2022-11-13T03:10:44.866Z,66.89
2022-11-13T03:11:49.086Z,66.5
2022-11-13T03:12:53.305Z,66.55
2022-11-13T03:13:57.542Z,66.8
2022-11-13T03:15:01.861Z,67.01
2022-11-13T03:16:06.089Z,67.08
2022-11-13T03:17:10.331Z,66.97
2022-11-13T03:18:14.593Z,66.71
2022-11-13T03:19:18.838Z,66.55
2022-11-13T03:20:23.042Z,66.35
2022-11-13T03:21:27.253Z,66.49
2022-11-13T03:22:31.488Z,66.24
2022-11-13T03:23:35.699Z,66.31
2022-11-13T03:24:39.928Z,66.44
2022-11-13T03:25:44.162Z,66.5
2022-11-13T03:26:48.359Z,66.56
2022-11-13T03:27:52.614Z,66.45
2022-11-13T03:28:56.845Z,66.37
2022-11-13T03:30:01.092Z,66.48
2022-11-13T03:31:05.353Z,66.51
2022-11-13T03:32:09.564Z,66.7
2022-11-13T03:33:13.782Z,66.48
2022-11-13T03:34:18.026Z,66.9
2022-11-13T03:35:22.274Z,66.66
2022-11-13T03:36:26.507Z,67.02
2022-11-13T03:37:30.774Z,66.67
2022-11-13T03:38:35.036Z,66.96
2022-11-13T03:39:39.265Z,66.7
2022-11-13T03:40:43.502Z,67.04
2022-11-13T03:41:47.730Z,66.85
2022-11-13T03:42:51.953Z,67.31
2022-11-13T03:43:56.176Z,67.24
2022-11-13T03:45:00.403Z,67.28
2022-11-13T03:46:04.677Z,67.31
2022-11-13T03:47:11.312Z,67.22
2022-11-13T03:48:15.536Z,66.92
2022-11-13T03:49:19.765Z,66.79
2022-11-13T03:50:23.966Z,66.71
2022-11-13T03:51:28.189Z,67.16
2022-11-13T03:52:32.426Z,67.07
2022-11-13T03:53:36.685Z,67.11
2022-11-13T03:54:40.913Z,67.01
2022-11-13T03:55:45.146Z,66.69
2022-11-13T03:56:49.352Z,66.99
2022-11-13T03:57:53.606Z,66.96
2022-11-13T03:58:57.845Z,66.67
2022-11-13T04:00:02.305Z,66.68
2022-11-13T04:01:06.529Z,67.13
2022-11-13T04:02:10.875Z,66.96
2022-11-13T04:03:15.143Z,67.08
2022-11-13T04:04:19.406Z,67
2022-11-13T04:05:25.015Z,67.05
2022-11-13T04:06:29.223Z,66.96
2022-11-13T04:07:33.466Z,67.29
2022-11-13T04:08:37.682Z,67.48
2022-11-13T04:09:41.946Z,66.92
2022-11-13T04:10:46.189Z,67.07
2022-11-13T04:11:50.409Z,67.1
2022-11-13T04:12:54.644Z,66.76
2022-11-13T04:13:58.850Z,66.87
2022-11-13T04:15:03.161Z,66.85
2022-11-13T04:16:07.457Z,66.82
2022-11-13T04:17:11.670Z,66.79
2022-11-13T04:18:15.862Z,66.73
2022-11-13T04:19:20.167Z,66.94
2022-11-13T04:20:24.420Z,67.02
2022-11-13T04:21:28.965Z,67
2022-11-13T04:22:33.213Z,66.78
2022-11-13T04:23:37.414Z,66.87
2022-11-13T04:24:41.641Z,66.73
2022-11-13T04:25:45.924Z,66.8
2022-11-13T04:26:50.152Z,66.8
2022-11-13T04:27:54.426Z,67.36
2022-11-13T04:28:58.623Z,67.68
2022-11-13T04:30:03.112Z,67.16
2022-11-13T04:31:07.350Z,66.99
2022-11-13T04:32:11.602Z,66.83
2022-11-13T04:33:15.830Z,66.82
2022-11-13T04:34:20.039Z,66.76
2022-11-13T04:35:24.497Z,66.8
2022-11-13T04:36:28.727Z,67.04
2022-11-13T04:37:32.950Z,67.48
2022-11-13T04:38:37.175Z,67.25
2022-11-13T04:39:41.428Z,67.48
2022-11-13T04:40:45.654Z,67.36
2022-11-13T04:41:56.637Z,66.81
2022-11-13T04:43:00.872Z,66.8
2022-11-13T04:44:05.147Z,67.14
2022-11-13T04:45:09.623Z,67.18
2022-11-13T04:46:13.840Z,66.94
2022-11-13T04:47:18.085Z,66.74
2022-11-13T04:48:22.546Z,66.93
2022-11-13T04:49:26.802Z,66.92
2022-11-13T04:50:31.095Z,66.87
2022-11-13T04:51:35.316Z,66.9
2022-11-13T04:52:39.546Z,67.22
2022-11-13T04:53:43.788Z,67.51
2022-11-13T04:54:48.032Z,67.18
2022-11-13T04:55:52.261Z,67.28
2022-11-13T04:56:56.519Z,67.39
2022-11-13T04:58:00.755Z,67.65
2022-11-13T04:59:04.982Z,67.32
2022-11-13T05:00:09.233Z,67.62
2022-11-13T05:01:13.510Z,67.75
2022-11-13T05:02:17.731Z,67.51
2022-11-13T05:03:21.968Z,67.53
2022-11-13T05:04:26.200Z,67.51
2022-11-13T05:05:30.443Z,67.78
2022-11-13T05:06:34.709Z,67.77
2022-11-13T05:07:38.931Z,67.38
2022-11-13T05:08:43.700Z,67.77
2022-11-13T05:09:47.948Z,67.71
2022-11-13T05:10:52.207Z,67.12
2022-11-13T05:11:56.486Z,67.28
2022-11-13T05:13:00.726Z,67.22
2022-11-13T05:14:05.797Z,67.48
2022-11-13T05:15:09.992Z,67.69
2022-11-13T05:16:14.219Z,67.46
2022-11-13T05:17:18.471Z,67.66
2022-11-13T05:18:23.253Z,67.32
2022-11-13T05:19:27.491Z,67.46
2022-11-13T05:20:31.744Z,67.64
2022-11-13T05:21:36.012Z,67.29
2022-11-13T05:22:40.244Z,67.21
2022-11-13T05:23:44.461Z,67.64
2022-11-13T05:24:48.668Z,67.31
2022-11-13T05:25:52.981Z,67.25
2022-11-13T05:26:57.217Z,67.11
2022-11-13T05:28:01.587Z,67.64
2022-11-13T05:29:05.807Z,67.21
2022-11-13T05:30:10.091Z,67.56
2022-11-13T05:31:14.324Z,67.4
2022-11-13T05:32:19.125Z,67.62
2022-11-13T05:33:23.365Z,67.3
2022-11-13T05:34:27.597Z,67.51
2022-11-13T05:35:31.842Z,67.89
2022-11-13T05:36:36.106Z,67.45
2022-11-13T05:37:40.418Z,67.31
2022-11-13T05:38:44.645Z,67.3
2022-11-13T05:39:48.877Z,67.7
2022-11-13T05:40:53.083Z,67.28
2022-11-13T05:41:57.311Z,67.21
2022-11-13T05:43:01.554Z,67.3
2022-11-13T05:44:05.791Z,67.84
2022-11-13T05:45:10.019Z,67.47
2022-11-13T05:46:14.336Z,67.72
2022-11-13T05:47:18.557Z,67.46
2022-11-13T05:48:22.781Z,67.27
2022-11-13T05:49:27.072Z,67.15
2022-11-13T05:50:31.340Z,67.84
2022-11-13T05:51:35.588Z,67.42
2022-11-13T05:52:39.853Z,67.46
2022-11-13T05:53:44.106Z,67.92
2022-11-13T05:54:48.388Z,67.98
2022-11-13T05:55:52.598Z,67.98
2022-11-13T05:56:56.818Z,67.89
2022-11-13T05:58:01.050Z,67.95
2022-11-13T05:59:05.270Z,67.57
2022-11-13T06:00:09.553Z,68.04
2022-11-13T06:01:13.781Z,68.16
2022-11-13T06:02:18.159Z,68.13
2022-11-13T06:03:22.428Z,67.9
2022-11-13T06:04:26.656Z,68.08
2022-11-13T06:05:30.910Z,67.91
2022-11-13T06:06:35.414Z,67.76
2022-11-13T06:07:39.645Z,67.77
2022-11-13T06:08:44.854Z,68.02
2022-11-13T06:09:49.187Z,68.12
2022-11-13T06:10:53.468Z,68.08
2022-11-13T06:11:57.680Z,68.21
2022-11-13T06:13:01.915Z,68.05
2022-11-13T06:14:06.162Z,68.14
2022-11-13T06:15:10.414Z,67.67
2022-11-13T06:16:14.634Z,67.95
2022-11-13T06:17:18.847Z,67.8
2022-11-13T06:18:28.622Z,68.06
2022-11-13T06:19:33.110Z,68.05
2022-11-13T06:20:37.333Z,67.99
2022-11-13T06:21:41.600Z,67.71
2022-11-13T06:22:45.843Z,67.93
2022-11-13T06:23:50.052Z,67.49
2022-11-13T06:24:54.260Z,67.92
2022-11-13T06:25:58.490Z,67.89
2022-11-13T06:27:05.170Z,67.86
2022-11-13T06:28:09.426Z,67.97
2022-11-13T06:29:13.618Z,67.87
2022-11-13T06:30:17.867Z,67.48
2022-11-13T06:31:22.488Z,67.76
2022-11-13T06:32:26.788Z,67.88
2022-11-13T06:33:31.015Z,67.59
2022-11-13T06:34:35.251Z,67.7
2022-11-13T06:35:39.486Z,67.76
2022-11-13T06:36:43.708Z,67.55
2022-11-13T06:37:47.953Z,67.99
2022-11-13T06:38:52.479Z,67.43
2022-11-13T06:39:59.045Z,67.81
2022-11-13T06:41:03.274Z,67.96
2022-11-13T06:42:07.531Z,67.87
2022-11-13T06:43:11.760Z,67.43
2022-11-13T06:44:15.971Z,67.27
2022-11-13T06:45:20.208Z,66.92
2022-11-13T06:46:24.434Z,67.46
2022-11-13T06:47:28.669Z,67.51
2022-11-13T06:48:33.301Z,67.24
2022-11-13T06:49:37.557Z,66.92
2022-11-13T06:50:49.408Z,66.73
2022-11-13T06:51:53.682Z,66.63
2022-11-13T06:52:57.925Z,66.42
2022-11-13T06:54:02.146Z,66.24
2022-11-13T06:55:06.383Z,66.13
2022-11-13T06:56:10.631Z,66.12
2022-11-13T06:57:14.858Z,65.98
2022-11-13T06:58:19.120Z,66.01
2022-11-13T06:59:23.389Z,65.92
2022-11-13T07:00:29.999Z,65.88
2022-11-13T07:01:36.640Z,65.8
2022-11-13T07:02:40.891Z,65.63
2022-11-13T07:03:48.478Z,65.63
2022-11-13T07:04:52.739Z,65.55
2022-11-13T07:05:56.966Z,65.41
2022-11-13T07:07:01.535Z,65.43
2022-11-13T07:08:05.797Z,65.36
2022-11-13T07:09:10.023Z,65.37
2022-11-13T07:10:14.341Z,65.3
2022-11-13T07:11:18.586Z,65.22
2022-11-13T07:12:22.835Z,65.13
2022-11-13T07:13:27.109Z,65.06
2022-11-13T07:14:31.317Z,65.02
2022-11-13T07:15:35.568Z,64.97
2022-11-13T07:17:11.027Z,64.87
2022-11-13T07:18:17.210Z,64.81
2022-11-13T07:19:23.306Z,64.72
2022-11-13T07:20:27.870Z,64.73
2022-11-13T07:21:32.102Z,64.63
2022-11-13T07:22:36.346Z,64.57
2022-11-13T07:23:40.600Z,64.51
2022-11-13T07:24:44.824Z,64.52
2022-11-13T07:25:49.053Z,64.5
2022-11-13T07:26:53.269Z,64.59
2022-11-13T07:27:57.510Z,64.64
2022-11-13T07:29:01.719Z,64.73
2022-11-13T07:30:06.270Z,64.79
2022-11-13T07:31:11.559Z,64.82
2022-11-13T07:32:16.180Z,64.83
2022-11-13T07:33:20.423Z,64.77
2022-11-13T07:34:24.647Z,64.7
2022-11-13T07:35:28.891Z,64.67
2022-11-13T07:36:33.154Z,64.61
2022-11-13T07:37:37.408Z,64.54
2022-11-13T07:38:41.645Z,64.58
2022-11-13T07:39:45.869Z,64.58
2022-11-13T07:40:50.110Z,64.56
2022-11-13T07:41:54.377Z,64.55
2022-11-13T07:42:58.615Z,64.57
2022-11-13T07:44:11.194Z,64.69
2022-11-13T07:45:19.577Z,64.74
2022-11-13T07:46:24.804Z,64.78
2022-11-13T07:47:29.087Z,64.87
2022-11-13T07:48:34.027Z,64.86
2022-11-13T07:49:38.242Z,64.96
2022-11-13T07:50:42.496Z,65.02
2022-11-13T07:51:46.717Z,65.23
2022-11-13T07:52:51.035Z,65.25
2022-11-13T07:53:55.323Z,65.34
2022-11-13T07:54:59.655Z,65.58
2022-11-13T07:56:05.149Z,65.43
2022-11-13T07:57:09.372Z,65.53
2022-11-13T07:58:13.734Z,65.59
2022-11-13T07:59:18.139Z,65.5
2022-11-13T08:00:22.350Z,65.35
2022-11-13T08:01:26.844Z,65.52
2022-11-13T08:02:31.116Z,65.49
2022-11-13T08:03:35.338Z,65.66
2022-11-13T08:04:39.715Z,65.69
2022-11-13T08:05:43.927Z,65.53
2022-11-13T08:06:48.340Z,65.71
2022-11-13T08:07:53.653Z,65.56
2022-11-13T08:08:57.874Z,65.63
2022-11-13T08:10:02.143Z,65.57
2022-11-13T08:11:06.369Z,65.54
2022-11-13T08:12:10.636Z,65.68
2022-11-13T08:13:14.854Z,65.72
2022-11-13T08:14:21.437Z,65.76
2022-11-13T08:15:25.665Z,65.87
2022-11-13T08:16:29.910Z,65.83
2022-11-13T08:17:34.106Z,65.91
2022-11-13T08:18:38.331Z,65.74
2022-11-13T08:19:45.581Z,65.78
2022-11-13T08:20:49.855Z,65.84
2022-11-13T08:21:54.098Z,65.72
2022-11-13T08:22:58.344Z,65.82
2022-11-13T08:24:02.607Z,65.67
2022-11-13T08:25:06.873Z,65.68
2022-11-13T08:26:11.263Z,65.7
2022-11-13T08:27:15.526Z,65.47
2022-11-13T08:28:19.744Z,65.59
2022-11-13T08:29:24.252Z,65.51
2022-11-13T08:30:28.599Z,65.61
2022-11-13T08:31:32.837Z,65.48
2022-11-13T08:32:37.050Z,65.74
2022-11-13T08:33:41.284Z,65.36
2022-11-13T08:34:45.505Z,65.06
2022-11-13T08:35:49.696Z,64.34
2022-11-13T08:36:53.889Z,64.38
2022-11-13T08:37:58.197Z,63.47
2022-11-13T08:39:02.423Z,62.99
2022-11-13T08:40:06.657Z,62.81
2022-11-13T08:41:11.934Z,62.88
2022-11-13T08:42:16.153Z,62.89
2022-11-13T08:43:20.359Z,62.76
2022-11-13T08:44:24.612Z,63.1
2022-11-13T08:45:28.872Z,62.73
2022-11-13T08:46:33.150Z,62.87
2022-11-13T08:47:37.368Z,62.95
2022-11-13T08:48:41.574Z,62.99
2022-11-13T08:49:45.841Z,62.99
2022-11-13T08:50:50.089Z,63.06
2022-11-13T08:51:54.300Z,63.15
2022-11-13T08:52:58.526Z,63.26
2022-11-13T08:54:02.765Z,63.2
2022-11-13T08:55:06.982Z,63.13
2022-11-13T08:56:11.198Z,63.22
2022-11-13T08:57:15.513Z,63.14
2022-11-13T08:58:19.738Z,63.13
2022-11-13T08:59:23.942Z,63.06
2022-11-13T09:00:28.158Z,63.14
2022-11-13T09:01:32.361Z,63.2
2022-11-13T09:02:36.664Z,63.18
2022-11-13T09:03:41.203Z,63.11
2022-11-13T09:04:45.448Z,63.06
2022-11-13T09:05:49.954Z,63.13
2022-11-13T09:06:54.332Z,63.13
2022-11-13T09:07:58.639Z,63.07
2022-11-13T09:09:02.851Z,63.13
2022-11-13T09:10:07.064Z,63.05
2022-11-13T09:11:11.302Z,62.98
2022-11-13T09:12:15.575Z,63.04
2022-11-13T09:13:19.827Z,62.93
2022-11-13T09:14:24.058Z,62.93
2022-11-13T09:15:28.287Z,63.11
2022-11-13T09:16:32.498Z,62.96
2022-11-13T09:17:36.860Z,63.05
2022-11-13T09:18:41.094Z,62.97
2022-11-13T09:19:45.328Z,62.86
2022-11-13T09:20:49.565Z,62.71
2022-11-13T09:21:53.820Z,62.94
2022-11-13T09:22:58.097Z,62.71
2022-11-13T09:24:02.368Z,62.74
2022-11-13T09:25:06.583Z,62.97
2022-11-13T09:26:10.893Z,63.01
2022-11-13T09:27:15.169Z,62.94
2022-11-13T09:28:19.450Z,62.77
2022-11-13T09:29:23.658Z,62.55
2022-11-13T09:30:27.900Z,62.47
2022-11-13T09:31:32.152Z,62.28
2022-11-13T09:32:36.395Z,62.07
2022-11-13T09:33:40.670Z,61.89
2022-11-13T09:34:44.913Z,61.82
2022-11-13T09:35:49.170Z,61.64
2022-11-13T09:36:53.483Z,61.6
2022-11-13T09:37:57.706Z,61.45
2022-11-13T09:39:01.926Z,61.47
2022-11-13T09:40:06.163Z,61.37
2022-11-13T09:41:10.375Z,61.42
2022-11-13T09:42:14.600Z,61.4
2022-11-13T09:43:18.861Z,61.4
2022-11-13T09:44:23.065Z,61.4
2022-11-13T09:45:27.320Z,61.3
2022-11-13T09:46:31.538Z,61.43
2022-11-13T09:47:35.768Z,61.44
2022-11-13T09:48:40.052Z,61.52
2022-11-13T09:49:44.299Z,61.49
2022-11-13T09:50:48.562Z,61.51
2022-11-13T09:51:52.815Z,61.53
2022-11-13T09:52:57.050Z,61.49
2022-11-13T09:54:01.336Z,61.54
2022-11-13T09:55:05.557Z,61.53
2022-11-13T09:56:09.787Z,61.55
2022-11-13T09:57:14.080Z,61.61
2022-11-13T09:58:18.328Z,61.55
2022-11-13T09:59:22.625Z,61.57
2022-11-13T10:00:26.864Z,61.51
2022-11-13T10:01:31.258Z,61.67
2022-11-13T10:02:35.529Z,61.62
2022-11-13T10:04:15.084Z,61.5
2022-11-13T10:05:19.353Z,61.67
2022-11-13T10:06:23.568Z,61.63
2022-11-13T10:07:27.810Z,61.61
2022-11-13T10:08:32.925Z,61.71
2022-11-13T10:09:37.170Z,61.79
2022-11-13T10:10:41.446Z,61.63
2022-11-13T10:11:45.674Z,61.78
2022-11-13T10:12:52.300Z,61.47
2022-11-13T10:13:56.542Z,61.59
2022-11-13T10:15:00.779Z,61.7
2022-11-13T10:16:05.024Z,61.57
2022-11-13T10:17:09.242Z,61.51
2022-11-13T10:18:13.449Z,61.43
2022-11-13T10:19:17.694Z,61.66
2022-11-13T10:20:22.124Z,61.67
2022-11-13T10:21:26.388Z,61.68
2022-11-13T10:22:35.963Z,61.74
2022-11-13T10:23:40.192Z,61.75
2022-11-13T10:24:44.422Z,61.57
2022-11-13T10:25:48.638Z,61.4
2022-11-13T10:26:52.868Z,61.37
2022-11-13T10:27:57.400Z,61.35
2022-11-13T10:29:02.001Z,61.29
2022-11-13T10:30:06.295Z,60.92
2022-11-13T10:31:10.850Z,60.53
2022-11-13T10:32:15.432Z,60.55
2022-11-13T10:33:19.643Z,60.97
2022-11-13T10:34:23.878Z,60.83
2022-11-13T10:35:28.091Z,60.79
2022-11-13T10:36:32.372Z,60.91
2022-11-13T10:37:36.595Z,60.93
2022-11-13T10:38:40.808Z,60.93
2022-11-13T10:39:45.064Z,61.13
2022-11-13T10:40:49.302Z,60.93
2022-11-13T10:41:53.551Z,61.08
2022-11-13T10:42:57.799Z,61.1
2022-11-13T10:44:02.031Z,61.17
2022-11-13T10:45:13.502Z,61.12
2022-11-13T10:46:17.752Z,60.95
2022-11-13T10:48:05.359Z,61.06
2022-11-13T10:49:09.660Z,60.94
2022-11-13T10:50:13.962Z,60.96
2022-11-13T10:51:18.205Z,60.8
2022-11-13T10:52:22.410Z,60.82
2022-11-13T10:53:27.118Z,60.77
2022-11-13T10:54:31.615Z,60.55
2022-11-13T10:55:35.878Z,60.56
2022-11-13T10:56:40.124Z,60.48
2022-11-13T10:57:56.318Z,60.49
2022-11-13T10:59:00.698Z,60.53
2022-11-13T11:00:05.044Z,60.55
2022-11-13T11:01:09.496Z,60.64
2022-11-13T11:02:13.732Z,60.63
2022-11-13T11:03:17.968Z,60.57
2022-11-13T11:04:22.178Z,60.67
2022-11-13T11:05:26.445Z,60.76
2022-11-13T11:07:21.659Z,60.73
2022-11-13T11:08:26.475Z,60.76
2022-11-13T11:09:30.896Z,60.8
2022-11-13T11:10:37.434Z,60.79
2022-11-13T11:11:41.653Z,61.07
2022-11-13T11:12:45.899Z,61.03
2022-11-13T11:13:50.107Z,60.67
2022-11-13T11:14:54.340Z,60.97
2022-11-13T11:15:58.589Z,61.38
2022-11-13T11:17:02.824Z,61.37
2022-11-13T11:18:07.063Z,61.17
2022-11-13T11:19:11.619Z,61.13
2022-11-13T11:20:15.868Z,60.94
2022-11-13T11:21:20.109Z,61.06
2022-11-13T11:22:24.360Z,61.08
2022-11-13T11:23:28.568Z,61
2022-11-13T11:24:32.804Z,60.86
2022-11-13T11:25:37.052Z,60.99
2022-11-13T11:26:41.291Z,60.96
2022-11-13T11:27:45.524Z,61.09
2022-11-13T11:28:49.757Z,60.91
2022-11-13T11:29:53.990Z,61.02
2022-11-13T11:30:58.225Z,61.1
2022-11-13T11:32:02.466Z,60.97
2022-11-13T11:33:06.717Z,60.87
2022-11-13T11:34:10.949Z,61.03
2022-11-13T11:35:15.202Z,60.95
2022-11-13T11:36:19.457Z,61.19
2022-11-13T11:37:23.717Z,61.54
2022-11-13T11:38:29.034Z,61.18
2022-11-13T11:39:33.493Z,60.92
2022-11-13T11:40:37.724Z,61.01
2022-11-13T11:41:41.971Z,60.89
2022-11-13T11:42:46.225Z,61.04
2022-11-13T11:43:50.423Z,61.08
2022-11-13T11:44:54.660Z,61.1
2022-11-13T11:45:58.913Z,61.11
2022-11-13T11:47:03.149Z,61.15
2022-11-13T11:48:07.362Z,61.09
2022-11-13T11:49:11.599Z,61.2
2022-11-13T11:50:16.077Z,61.19
2022-11-13T11:51:20.300Z,61.28
2022-11-13T11:52:24.560Z,61.27
2022-11-13T11:53:28.794Z,61.33
2022-11-13T11:54:33.017Z,61.47
2022-11-13T11:55:37.287Z,61.21
2022-11-13T11:56:41.521Z,61.33
2022-11-13T11:57:45.770Z,61.44
2022-11-13T11:58:49.994Z,61.35
2022-11-13T11:59:54.225Z,61.42
2022-11-13T12:00:58.454Z,61.35
2022-11-13T12:02:02.696Z,61.4
2022-11-13T12:03:06.962Z,61.38
2022-11-13T12:04:11.236Z,61.61
2022-11-13T12:05:21.808Z,61.5
2022-11-13T12:06:26.182Z,61.35
2022-11-13T12:07:30.630Z,61.24
2022-11-13T12:08:34.918Z,61.26
2022-11-13T12:09:39.277Z,61.3
2022-11-13T12:10:43.521Z,61.17
2022-11-13T12:11:47.735Z,61.05
2022-11-13T12:12:51.991Z,61.06
2022-11-13T12:13:56.242Z,61.2
2022-11-13T12:15:00.524Z,61.02
2022-11-13T12:16:04.747Z,60.82
2022-11-13T12:17:18.922Z,60.7
2022-11-13T12:18:23.166Z,60.4
2022-11-13T12:19:27.673Z,60.3
2022-11-13T12:20:31.906Z,60.34
2022-11-13T12:21:36.143Z,60.25
2022-11-13T12:22:40.353Z,60.21
2022-11-13T12:23:45.610Z,60.25
2022-11-13T12:24:49.848Z,60.21
2022-11-13T12:25:54.177Z,60.28
2022-11-13T12:26:58.416Z,60.41
2022-11-13T12:28:02.653Z,60.31
2022-11-13T12:29:06.891Z,60.53
2022-11-13T12:30:11.134Z,60.45
2022-11-13T12:31:15.384Z,60.63
2022-11-13T12:32:19.640Z,60.61
2022-11-13T12:33:23.912Z,60.7
2022-11-13T12:34:28.175Z,60.72
2022-11-13T12:35:32.492Z,60.83
2022-11-13T12:36:36.830Z,60.97
2022-11-13T12:37:41.172Z,61.14
2022-11-13T12:38:45.412Z,61.06
2022-11-13T12:39:49.657Z,60.84
2022-11-13T12:40:53.949Z,60.94
2022-11-13T12:41:59.363Z,60.98
2022-11-13T12:43:03.674Z,61.04
2022-11-13T12:44:07.895Z,61.19
2022-11-13T12:45:12.138Z,61.06
2022-11-13T12:46:18.912Z,60.97
2022-11-13T12:47:23.169Z,60.95
2022-11-13T12:48:28.256Z,60.95
2022-11-13T12:49:32.788Z,60.89
2022-11-13T12:50:37.048Z,61
2022-11-13T12:51:41.330Z,60.98
2022-11-13T12:52:45.601Z,60.94
2022-11-13T12:53:49.819Z,60.99
2022-11-13T12:54:54.118Z,61.08
2022-11-13T12:55:58.459Z,60.95
2022-11-13T12:57:02.691Z,60.98
2022-11-13T12:58:06.988Z,60.98
2022-11-13T12:59:33.005Z,61.03
2022-11-13T13:00:37.246Z,61.03
2022-11-13T13:01:41.794Z,61.06
2022-11-13T13:02:46.042Z,61.13
2022-11-13T13:03:50.264Z,61.11
2022-11-13T13:04:54.506Z,61
2022-11-13T13:05:58.756Z,61.05
2022-11-13T13:07:03.306Z,61.07
2022-11-13T13:08:07.637Z,61.07
2022-11-13T13:09:11.848Z,60.96
2022-11-13T13:10:16.072Z,61.07
2022-11-13T13:11:20.286Z,61.12
2022-11-13T13:12:24.513Z,60.93
2022-11-13T13:13:28.758Z,61.07
2022-11-13T13:14:33.469Z,61.07
2022-11-13T13:15:37.704Z,61.04
2022-11-13T13:16:41.930Z,61.1
2022-11-13T13:17:46.207Z,61.09
2022-11-13T13:18:50.491Z,61.12
2022-11-13T13:19:54.751Z,61.1
2022-11-13T13:20:59.282Z,61.09
2022-11-13T13:22:03.503Z,61.06
2022-11-13T13:23:10.670Z,61.06
2022-11-13T13:24:14.902Z,61.08
2022-11-13T13:25:19.117Z,61.1
2022-11-13T13:26:23.341Z,61.12
2022-11-13T13:27:27.583Z,61.15
2022-11-13T13:28:32.902Z,61.14
2022-11-13T13:29:37.394Z,61.06
2022-11-13T13:30:41.629Z,61.06
2022-11-13T13:31:45.870Z,61.06
2022-11-13T13:32:50.107Z,61.02
2022-11-13T13:33:54.401Z,61.12
2022-11-13T13:34:58.648Z,61.09
2022-11-13T13:36:02.881Z,61.04
2022-11-13T13:37:07.126Z,60.93
2022-11-13T13:38:11.354Z,61.05
2022-11-13T13:39:15.631Z,61.01
2022-11-13T13:40:19.871Z,61.02
2022-11-13T13:41:24.130Z,60.93
2022-11-13T13:42:28.328Z,60.57
2022-11-13T13:43:32.598Z,60.31
2022-11-13T13:44:36.926Z,60.24
2022-11-13T13:45:41.176Z,60
2022-11-13T13:46:45.406Z,59.93
2022-11-13T13:47:49.691Z,59.74
2022-11-13T13:48:53.937Z,59.66
2022-11-13T13:49:58.226Z,59.65
2022-11-13T13:51:02.452Z,59.72
2022-11-13T13:52:06.658Z,59.68
2022-11-13T13:53:10.885Z,59.69
2022-11-13T13:54:15.093Z,59.63
2022-11-13T13:55:19.320Z,59.64
2022-11-13T13:56:23.552Z,59.59
2022-11-13T13:57:27.794Z,59.62